Time;durP1;ratioP1;P1;durP2;ratioP2;P2;SDS_P1;SDS_P2;PMS_P1;PMS_P2;Temp;Humidity;BMP_temperature;BMP_pressure;BME280_temperature;BME280_humidity;BME280_pressure;Samples;Min_cycle;Max_cycle;Signal;HPM_P1;HPM_P2
2021/01/29 00:01:35;;;;;;;20.37;7.47;;;;;;;;;;5034859;28;20455;-75
2021/01/29 00:04:01;;;;;;;27.58;7.32;;;;;;;;;;5032958;28;20928;-75
2021/01/29 00:06:27;;;;;;;15.13;6.30;;;;;;;;;;5034745;28;20197;-73
2021/01/29 00:08:53;;;;;;;20.93;6.27;;;;;;;;;;5034434;28;21047;-74
2021/01/29 00:11:19;;;;;;;22.40;5.82;;;;;;;;;;5034737;28;20413;-74
2021/01/29 00:13:45;;;;;;;21.33;6.67;;;;;;;;;;5034564;28;20260;-73
2021/01/29 00:16:11;;;;;;;24.77;7.13;;;;;;;;;;5034726;28;20409;-74
2021/01/29 00:18:37;;;;;;;16.67;6.80;;;;;;;;;;5034219;28;20464;-76
2021/01/29 00:21:03;;;;;;;19.30;6.35;;;;;;;;;;5034557;28;20448;-75
2021/01/29 00:23:29;;;;;;;20.30;6.68;;;;;;;;;;5034503;28;20170;-73
2021/01/29 00:25:55;;;;;;;31.88;6.68;;;;;;;;;;5034407;28;20182;-74
2021/01/29 00:28:23;;;;;;;28.63;6.95;;;;;;;;;;5034023;28;20570;-75
2021/01/29 00:30:50;;;;;;;18.42;5.65;;;;;;;;;;5034352;28;20185;-73
2021/01/29 00:33:17;;;;;;;13.95;5.85;;;;;;;;;;5034126;28;20537;-74
2021/01/29 00:35:44;;;;;;;15.95;5.55;;;;;;;;;;5034287;28;20686;-75
2021/01/29 00:38:10;;;;;;;28.25;7.18;;;;;;;;;;5033646;28;20209;-74
2021/01/29 00:40:36;;;;;;;17.98;5.50;;;;;;;;;;5034118;28;20171;-76
2021/01/29 00:43:04;;;;;;;16.25;6.90;;;;;;;;;;5034180;28;20177;-73
2021/01/29 00:45:31;;;;;;;26.10;6.10;;;;;;;;;;5033953;28;20646;-74
2021/01/29 00:47:57;;;;;;;20.95;6.68;;;;;;;;;;5033445;28;20735;-74
2021/01/29 00:50:23;;;;;;;21.50;5.18;;;;;;;;;;5033927;28;20178;-74
2021/01/29 00:52:49;;;;;;;14.23;5.90;;;;;;;;;;5033888;28;20201;-75
2021/01/29 00:55:16;;;;;;;15.93;4.83;;;;;;;;;;5033846;28;20178;-75
2021/01/29 00:57:42;;;;;;;12.35;4.80;;;;;;;;;;5033293;28;20834;-76
2021/01/29 01:00:09;;;;;;;28.93;5.63;;;;;;;;;;5033691;28;20174;-75
2021/01/29 01:02:35;;;;;;;18.17;5.80;;;;;;;;;;5033711;28;20924;-74
2021/01/29 01:05:01;;;;;;;14.85;4.82;;;;;;;;;;5033857;28;20179;-74
2021/01/29 01:07:27;;;;;;;13.32;4.22;;;;;;;;;;5033250;28;20654;-74
2021/01/29 01:09:53;;;;;;;17.88;4.45;;;;;;;;;;5033463;28;20201;-73
2021/01/29 01:12:19;;;;;;;13.30;4.50;;;;;;;;;;5033529;28;20181;-76
2021/01/29 01:14:45;;;;;;;10.63;4.85;;;;;;;;;;5033603;28;20180;-74
2021/01/29 01:17:12;;;;;;;10.65;4.97;;;;;;;;;;5033399;28;20225;-75
2021/01/29 01:19:38;;;;;;;17.20;4.65;;;;;;;;;;5033496;28;20276;-75
2021/01/29 01:22:05;;;;;;;10.77;4.15;;;;;;;;;;5033437;28;20172;-74
2021/01/29 01:24:31;;;;;;;12.50;3.50;;;;;;;;;;5033436;28;20177;-76
2021/01/29 01:26:57;;;;;;;8.70;3.60;;;;;;;;;;5033067;28;20177;-75
2021/01/29 01:29:23;;;;;;;10.25;4.13;;;;;;;;;;5033656;28;20224;-74
2021/01/29 01:31:49;;;;;;;10.05;3.72;;;;;;;;;;5032232;28;20181;-75
2021/01/29 01:34:15;;;;;;;13.60;4.40;;;;;;;;;;5033199;28;20200;-75
2021/01/29 01:36:41;;;;;;;14.90;3.70;;;;;;;;;;5032678;28;20846;-75
2021/01/29 01:39:07;;;;;;;7.20;3.10;;;;;;;;;;5033043;28;20425;-75
2021/01/29 01:41:33;;;;;;;12.77;3.30;;;;;;;;;;5033145;28;20409;-75
2021/01/29 01:44:00;;;;;;;12.63;4.37;;;;;;;;;;5033202;28;20733;-76
2021/01/29 01:46:26;;;;;;;7.05;3.67;;;;;;;;;;5032773;28;20873;-74
2021/01/29 01:49:04;;;;;;;5.63;3.25;;;;;;;;;;5032783;28;20588;-74
2021/01/29 01:51:36;;;;;;;17.08;3.22;;;;;;;;;;5033098;28;20206;-75
2021/01/29 01:54:04;;;;;;;11.75;3.00;;;;;;;;;;5033218;28;20178;-75
2021/01/29 01:56:39;;;;;;;12.38;4.30;;;;;;;;;;5032730;28;20220;-74
2021/01/29 01:59:07;;;;;;;8.07;2.80;;;;;;;;;;5033107;28;20197;-74
2021/01/29 02:01:33;;;;;;;4.90;2.33;;;;;;;;;;5033108;28;20257;-75
2021/01/29 02:04:00;;;;;;;11.82;3.80;;;;;;;;;;5033136;28;20720;-75
2021/01/29 02:06:27;;;;;;;5.22;2.50;;;;;;;;;;5032911;28;20201;-76
2021/01/29 02:08:55;;;;;;;7.43;3.05;;;;;;;;;;5032530;28;20590;-75
2021/01/29 02:11:22;;;;;;;7.07;2.40;;;;;;;;;;5032790;28;20250;-75
2021/01/29 02:13:48;;;;;;;15.43;3.17;;;;;;;;;;5033042;28;20181;-75
2021/01/29 02:16:30;;;;;;;8.82;2.80;;;;;;;;;;5033021;28;20649;-75
2021/01/29 02:19:14;;;;;;;8.80;2.70;;;;;;;;;;5032518;28;20198;-75
2021/01/29 02:21:55;;;;;;;5.10;2.17;;;;;;;;;;5032996;28;20180;-75
2021/01/29 02:24:24;;;;;;;6.35;2.08;;;;;;;;;;5032956;28;20173;-75
2021/01/29 02:27:06;;;;;;;7.43;2.35;;;;;;;;;;5033676;28;20181;-75
2021/01/29 02:29:35;;;;;;;7.28;2.17;;;;;;;;;;5036654;28;20170;-75
2021/01/29 02:32:22;;;;;;;6.55;2.42;;;;;;;;;;5036606;28;20185;-74
2021/01/29 02:34:51;;;;;;;7.22;1.98;;;;;;;;;;5036456;28;20185;-75
2021/01/29 02:37:23;;;;;;;6.10;1.90;;;;;;;;;;5036021;28;20203;-75
2021/01/29 02:39:59;;;;;;;5.80;2.30;;;;;;;;;;5036508;28;20174;-75
2021/01/29 02:42:31;;;;;;;7.40;1.95;;;;;;;;;;5036431;28;20529;-75
2021/01/29 02:45:04;;;;;;;12.85;2.50;;;;;;;;;;5036230;28;20174;-74
2021/01/29 02:47:35;;;;;;;4.28;1.85;;;;;;;;;;5035877;28;20208;-74
2021/01/29 02:50:06;;;;;;;4.15;2.00;;;;;;;;;;5036291;28;20174;-73
2021/01/29 02:52:35;;;;;;;4.63;1.90;;;;;;;;;;5036190;28;20295;-74
2021/01/29 02:55:01;;;;;;;5.57;2.60;;;;;;;;;;5035927;28;20258;-74
2021/01/29 02:57:34;;;;;;;3.10;1.53;;;;;;;;;;5035597;28;20296;-75
2021/01/29 03:00:07;;;;;;;8.50;2.40;;;;;;;;;;5036075;28;20419;-74
2021/01/29 03:02:56;;;;;;;5.03;1.90;;;;;;;;;;5036115;28;20536;-74
2021/01/29 03:05:36;;;;;;;4.95;1.65;;;;;;;;;;5027973;28;20233;-74
2021/01/29 03:08:11;;;;;;;3.95;1.80;;;;;;;;;;5035714;28;20264;-73
2021/01/29 03:10:39;;;;;;;4.25;1.60;;;;;;;;;;5035704;28;20589;-74
2021/01/29 03:13:09;;;;;;;8.27;1.67;;;;;;;;;;5035724;28;20174;-75
2021/01/29 03:15:40;;;;;;;5.75;1.52;;;;;;;;;;5035963;28;20249;-75
2021/01/29 03:18:16;;;;;;;4.97;1.83;;;;;;;;;;5035349;28;20210;-75
2021/01/29 03:20:44;;;;;;;4.22;1.85;;;;;;;;;;5035927;28;20166;-74
2021/01/29 03:23:16;;;;;;;2.65;1.60;;;;;;;;;;5035497;28;20182;-75
2021/01/29 03:25:44;;;;;;;2.03;1.40;;;;;;;;;;5035750;28;20166;-74
2021/01/29 03:28:12;;;;;;;2.50;1.45;;;;;;;;;;5035197;28;20197;-75
2021/01/29 03:30:40;;;;;;;4.60;1.60;;;;;;;;;;5035530;28;20196;-75
2021/01/29 03:33:08;;;;;;;2.95;1.50;;;;;;;;;;5035404;28;20175;-75
2021/01/29 03:35:38;;;;;;;4.13;1.42;;;;;;;;;;5035429;28;20253;-75
2021/01/29 03:38:09;;;;;;;5.90;1.80;;;;;;;;;;5033786;28;20680;-75
2021/01/29 03:40:42;;;;;;;2.90;1.40;;;;;;;;;;5035448;28;20175;-75
2021/01/29 03:43:26;;;;;;;3.20;1.40;;;;;;;;;;5035301;28;20264;-75
2021/01/29 03:46:11;;;;;;;7.65;1.58;;;;;;;;;;5035098;28;20184;-75
2021/01/29 03:48:37;;;;;;;3.70;1.65;;;;;;;;;;5034811;28;20204;-75
2021/01/29 03:51:07;;;;;;;2.90;1.60;;;;;;;;;;5035180;28;20178;-74
2021/01/29 03:53:33;;;;;;;3.60;1.15;;;;;;;;;;5034978;28;20495;-75
2021/01/29 03:56:19;;;;;;;2.20;1.63;;;;;;;;;;5035163;28;20296;-76
2021/01/29 03:58:55;;;;;;;3.83;1.20;;;;;;;;;;5034495;28;20481;-74
2021/01/29 04:01:25;;;;;;;4.82;1.00;;;;;;;;;;5034931;28;20244;-74
2021/01/29 04:03:57;;;;;;;3.65;1.48;;;;;;;;;;5034926;28;20166;-74
2021/01/29 04:06:25;;;;;;;1.80;1.27;;;;;;;;;;5034986;28;20182;-73
2021/01/29 04:09:02;;;;;;;4.47;1.00;;;;;;;;;;5034620;28;20201;-74
2021/01/29 04:11:32;;;;;;;5.60;1.20;;;;;;;;;;5033463;28;20296;-75
2021/01/29 04:14:01;;;;;;;3.78;1.60;;;;;;;;;;5033492;28;20698;-73
2021/01/29 04:16:34;;;;;;;5.32;1.50;;;;;;;;;;5034389;28;20178;-76
2021/01/29 04:19:01;;;;;;;2.05;1.20;;;;;;;;;;5034528;28;20190;-74
2021/01/29 04:21:39;;;;;;;1.55;1.27;;;;;;;;;;5034707;28;20173;-74
2021/01/29 04:24:18;;;;;;;3.30;1.33;;;;;;;;;;5034723;28;20185;-75
2021/01/29 04:26:50;;;;;;;1.20;0.93;;;;;;;;;;5034271;28;20182;-75
2021/01/29 04:29:18;;;;;;;1.45;0.85;;;;;;;;;;5034665;28;20182;-75
2021/01/29 04:31:45;;;;;;;2.00;1.10;;;;;;;;;;5034395;28;20178;-74
2021/01/29 04:34:21;;;;;;;1.05;0.95;;;;;;;;;;5034421;28;20189;-74
2021/01/29 04:36:49;;;;;;;1.83;1.17;;;;;;;;;;5033944;28;20216;-75
2021/01/29 04:39:22;;;;;;;2.58;0.90;;;;;;;;;;5034151;28;20629;-75
2021/01/29 04:41:56;;;;;;;1.08;0.80;;;;;;;;;;5033975;28;20268;-75
2021/01/29 04:44:27;;;;;;;0.90;0.70;;;;;;;;;;5034258;28;20204;-75
2021/01/29 04:46:53;;;;;;;1.75;1.02;;;;;;;;;;5033717;28;20184;-75
2021/01/29 04:49:19;;;;;;;3.78;1.20;;;;;;;;;;5033723;28;20174;-74
2021/01/29 04:52:12;;;;;;;1.70;1.10;;;;;;;;;;5035931;28;20591;-74
2021/01/29 04:54:44;;;;;;;1.83;0.80;;;;;;;;;;5033943;28;20467;-74
2021/01/29 04:57:13;;;;;;;1.10;0.95;;;;;;;;;;5033454;28;20225;-74
2021/01/29 04:59:55;;;;;;;1.42;1.10;;;;;;;;;;5033790;28;20173;-73
2021/01/29 05:02:43;;;;;;;1.13;0.93;;;;;;;;;;5033758;28;20157;-75
2021/01/29 05:05:15;;;;;;;2.60;1.20;;;;;;;;;;5033792;28;20178;-74
2021/01/29 05:08:02;;;;;;;2.15;1.00;;;;;;;;;;5033326;28;20280;-74
2021/01/29 05:10:50;;;;;;;1.60;0.85;;;;;;;;;;5033553;28;20194;-74
2021/01/29 05:13:18;;;;;;;1.48;0.70;;;;;;;;;;5033900;28;20166;-74
2021/01/29 05:16:02;;;;;;;1.10;0.90;;;;;;;;;;5032357;28;20189;-73
2021/01/29 05:18:47;;;;;;;2.10;0.80;;;;;;;;;;5033033;28;20210;-74
2021/01/29 05:21:39;;;;;;;0.70;0.65;;;;;;;;;;5033565;28;20173;-74
2021/01/29 05:24:11;;;;;;;6.95;0.80;;;;;;;;;;5030526;28;20591;-75
2021/01/29 05:26:57;;;;;;;2.13;1.00;;;;;;;;;;5033239;28;20838;-75
2021/01/29 05:29:42;;;;;;;1.52;0.88;;;;;;;;;;5033452;28;20186;-75
2021/01/29 05:32:13;;;;;;;1.25;0.93;;;;;;;;;;5033194;28;20536;-73
2021/01/29 05:35:00;;;;;;;1.20;1.10;;;;;;;;;;5033760;28;20213;-74
2021/01/29 05:37:49;;;;;;;1.50;0.80;;;;;;;;;;5032981;28;20202;-74
2021/01/29 05:40:27;;;;;;;1.85;1.20;;;;;;;;;;5025456;28;20277;-73
2021/01/29 05:43:08;;;;;;;1.40;0.90;;;;;;;;;;5033323;28;20194;-73
2021/01/29 05:45:53;;;;;;;5.35;1.23;;;;;;;;;;5033293;28;20208;-75
2021/01/29 05:48:38;;;;;;;1.73;0.75;;;;;;;;;;5032617;28;20272;-73
2021/01/29 05:51:11;;;;;;;1.35;0.80;;;;;;;;;;5033268;28;20174;-74
2021/01/29 05:54:08;;;;;;;1.33;0.90;;;;;;;;;;5033208;28;20181;-74
2021/01/29 05:56:43;;;;;;;2.97;0.82;;;;;;;;;;5031492;28;20702;-74
2021/01/29 05:59:12;;;;;;;2.95;0.82;;;;;;;;;;5032855;28;20189;-73
2021/01/29 06:02:01;;;;;;;1.48;0.80;;;;;;;;;;5034034;28;20193;-74
2021/01/29 06:04:45;;;;;;;1.10;0.80;;;;;;;;;;5036989;28;20170;-73
2021/01/29 06:07:20;;;;;;;2.15;0.98;;;;;;;;;;5036710;28;20225;-74
2021/01/29 06:09:49;;;;;;;1.98;0.70;;;;;;;;;;5036997;28;20193;-74
2021/01/29 06:12:15;;;;;;;7.38;1.00;;;;;;;;;;5036983;28;20227;-74
2021/01/29 06:14:50;;;;;;;2.27;1.10;;;;;;;;;;5036899;28;20184;-74
2021/01/29 06:17:21;;;;;;;3.55;1.70;;;;;;;;;;5036472;28;20990;-75
2021/01/29 06:19:47;;;;;;;2.13;1.45;;;;;;;;;;5036996;28;20198;-75
2021/01/29 06:22:13;;;;;;;0.87;0.80;;;;;;;;;;5036894;28;20212;-73
2021/01/29 06:24:48;;;;;;;0.67;0.60;;;;;;;;;;5036859;28;20409;-74
2021/01/29 06:27:17;;;;;;;0.75;0.75;;;;;;;;;;5036549;28;20436;-75
2021/01/29 06:29:58;;;;;;;0.80;0.70;;;;;;;;;;5036883;28;20236;-74
2021/01/29 06:32:51;;;;;;;1.67;0.63;;;;;;;;;;5036705;28;20182;-73
2021/01/29 06:35:32;;;;;;;1.13;0.73;;;;;;;;;;5013632;28;20194;-74
2021/01/29 06:38:18;;;;;;;1.55;0.82;;;;;;;;;;5036081;28;20255;-75
2021/01/29 06:40:55;;;;;;;0.80;0.77;;;;;;;;;;5036347;28;20166;-75
2021/01/29 06:43:21;;;;;;;1.67;0.60;;;;;;;;;;5036420;28;20215;-73
2021/01/29 06:46:06;;;;;;;0.60;0.57;;;;;;;;;;5036402;28;20169;-74
2021/01/29 06:48:50;;;;;;;1.23;0.80;;;;;;;;;;5035801;28;20429;-73
2021/01/29 06:51:35;;;;;;;1.23;0.73;;;;;;;;;;5036338;28;20174;-73
2021/01/29 06:54:10;;;;;;;1.65;0.70;;;;;;;;;;5036184;28;20185;-74
2021/01/29 06:56:54;;;;;;;0.80;0.80;;;;;;;;;;5035919;28;20197;-73
2021/01/29 06:59:32;;;;;;;1.05;0.85;;;;;;;;;;5035877;28;20182;-74
2021/01/29 07:02:07;;;;;;;2.45;1.08;;;;;;;;;;5036049;28;20210;-75
2021/01/29 07:04:43;;;;;;;1.50;1.20;;;;;;;;;;5036021;28;20532;-73
2021/01/29 07:07:36;;;;;;;2.20;1.10;;;;;;;;;;5035500;28;20193;-74
2021/01/29 07:10:05;;;;;;;1.10;1.00;;;;;;;;;;5031199;28;20212;-73
2021/01/29 07:12:50;;;;;;;2.35;1.10;;;;;;;;;;5035776;28;20194;-74
2021/01/29 07:15:54;;;;;;;2.25;1.50;;;;;;;;;;5036056;28;20185;-74
2021/01/29 07:18:20;;;;;;;1.40;1.27;;;;;;;;;;4974659;28;20608;-75
2021/01/29 07:20:56;;;;;;;3.17;1.60;;;;;;;;;;4975039;28;20180;-73
2021/01/29 07:23:34;;;;;;;4.95;1.92;;;;;;;;;;5007770;28;20490;-73
2021/01/29 07:26:10;;;;;;;3.85;1.90;;;;;;;;;;5035791;28;20270;-73
2021/01/29 07:29:04;;;;;;;3.38;1.60;;;;;;;;;;5035361;28;20324;-75
2021/01/29 07:31:41;;;;;;;6.28;2.13;;;;;;;;;;5035459;28;20178;-73
2021/01/29 07:34:14;;;;;;;5.20;1.70;;;;;;;;;;5035515;28;20232;-73
2021/01/29 07:36:40;;;;;;;2.97;1.65;;;;;;;;;;5034995;28;20202;-74
2021/01/29 07:39:11;;;;;;;4.93;1.70;;;;;;;;;;5035327;28;20662;-75
2021/01/29 07:41:55;;;;;;;3.53;1.90;;;;;;;;;;5035481;28;20415;-77
2021/01/29 07:44:31;;;;;;;1.95;1.13;;;;;;;;;;5035281;28;20178;-75
2021/01/29 07:47:20;;;;;;;2.70;0.80;;;;;;;;;;5033465;28;20190;-73
2021/01/29 07:49:46;;;;;;;1.90;0.88;;;;;;;;;;5029768;28;20194;-74
2021/01/29 07:52:15;;;;;;;1.83;1.00;;;;;;;;;;5033695;28;20280;-74
2021/01/29 07:55:00;;;;;;;5.20;1.75;;;;;;;;;;5034785;28;20416;-75
2021/01/29 07:57:29;;;;;;;3.45;1.75;;;;;;;;;;5034479;28;20206;-73
2021/01/29 07:59:55;;;;;;;12.88;3.33;;;;;;;;;;5034721;28;20251;-73
2021/01/29 08:02:30;;;;;;;11.13;2.67;;;;;;;;;;5034816;28;20204;-75
2021/01/29 08:05:14;;;;;;;7.28;2.85;;;;;;;;;;5034881;28;20424;-75
2021/01/29 08:07:44;;;;;;;7.53;2.50;;;;;;;;;;5034406;28;20223;-75
2021/01/29 08:10:16;;;;;;;13.90;3.08;;;;;;;;;;5034582;28;20562;-75
2021/01/29 08:12:50;;;;;;;13.02;3.35;;;;;;;;;;5035037;28;20184;-75
2021/01/29 08:15:35;;;;;;;18.42;3.25;;;;;;;;;;5034841;28;20261;-75
2021/01/29 08:18:19;;;;;;;11.30;2.40;;;;;;;;;;5034196;28;20201;-75
2021/01/29 08:21:04;;;;;;;20.88;3.42;;;;;;;;;;5034586;28;20183;-75
2021/01/29 08:23:39;;;;;;;14.13;2.90;;;;;;;;;;5034342;28;20205;-75
2021/01/29 08:26:05;;;;;;;13.32;2.53;;;;;;;;;;5034190;28;20508;-74
2021/01/29 08:28:31;;;;;;;18.57;3.40;;;;;;;;;;5034053;28;20216;-75
2021/01/29 08:31:16;;;;;;;8.43;2.80;;;;;;;;;;5034585;28;20490;-75
2021/01/29 08:33:48;;;;;;;7.78;2.05;;;;;;;;;;5028602;28;20413;-76
2021/01/29 08:36:23;;;;;;;16.13;3.15;;;;;;;;;;5026374;28;20190;-74
2021/01/29 08:38:59;;;;;;;7.65;2.60;;;;;;;;;;5031503;28;20201;-75
2021/01/29 08:41:43;;;;;;;17.90;3.88;;;;;;;;;;5032142;28;20186;-75
2021/01/29 08:44:14;;;;;;;18.45;3.78;;;;;;;;;;5032509;28;20265;-75
2021/01/29 08:46:54;;;;;;;16.85;2.83;;;;;;;;;;5031625;28;20712;-75
2021/01/29 08:49:39;;;;;;;15.60;3.08;;;;;;;;;;5031015;28;20674;-75
2021/01/29 08:52:12;;;;;;;17.15;2.85;;;;;;;;;;5031221;28;20196;-75
2021/01/29 08:54:48;;;;;;;10.00;2.78;;;;;;;;;;5031058;28;20265;-76
2021/01/29 08:57:14;;;;;;;12.50;3.08;;;;;;;;;;5030865;28;20216;-75
2021/01/29 08:59:40;;;;;;;15.13;3.67;;;;;;;;;;5032332;28;20204;-76
2021/01/29 09:02:12;;;;;;;12.13;2.85;;;;;;;;;;5031877;28;20417;-75
2021/01/29 09:04:43;;;;;;;13.82;4.13;;;;;;;;;;5031371;28;20250;-75
2021/01/29 09:07:16;;;;;;;18.20;4.50;;;;;;;;;;5033065;28;20193;-75
2021/01/29 09:09:43;;;;;;;9.00;2.45;;;;;;;;;;5033331;28;20201;-75
2021/01/29 09:12:16;;;;;;;18.35;3.78;;;;;;;;;;5033331;28;20185;-75
2021/01/29 09:14:49;;;;;;;21.02;3.95;;;;;;;;;;5029424;28;20592;-75
2021/01/29 09:17:17;;;;;;;13.68;3.55;;;;;;;;;;5031357;28;20213;-74
2021/01/29 09:19:44;;;;;;;15.90;2.72;;;;;;;;;;5030174;28;20193;-74
2021/01/29 09:22:13;;;;;;;22.75;5.90;;;;;;;;;;5031401;28;20189;-75
2021/01/29 09:24:39;;;;;;;21.70;4.97;;;;;;;;;;5031987;28;20607;-75
2021/01/29 09:27:05;;;;;;;16.30;4.20;;;;;;;;;;5030670;28;20261;-75
2021/01/29 09:29:38;;;;;;;22.53;3.80;;;;;;;;;;5032039;28;20425;-76
2021/01/29 09:32:08;;;;;;;15.30;3.70;;;;;;;;;;5031377;28;20420;-75
2021/01/29 09:34:37;;;;;;;17.17;3.28;;;;;;;;;;5027674;28;20198;-76
2021/01/29 09:37:06;;;;;;;13.27;3.22;;;;;;;;;;5023476;28;20209;-74
2021/01/29 09:39:39;;;;;;;16.90;4.45;;;;;;;;;;5032035;28;20271;-73
2021/01/29 09:42:10;;;;;;;16.10;3.53;;;;;;;;;;5030694;28;20180;-75
2021/01/29 09:44:36;;;;;;;15.80;4.05;;;;;;;;;;5031648;28;20182;-76
2021/01/29 09:47:04;;;;;;;16.53;3.17;;;;;;;;;;5031068;28;20186;-75
2021/01/29 09:49:34;;;;;;;21.65;3.65;;;;;;;;;;5031180;28;20515;-74
2021/01/29 09:52:00;;;;;;;20.40;3.25;;;;;;;;;;5031183;28;20189;-75
2021/01/29 09:54:39;;;;;;;22.40;4.75;;;;;;;;;;5029837;28;20196;-76
2021/01/29 09:57:28;;;;;;;13.15;4.15;;;;;;;;;;5029984;28;20201;-75
2021/01/29 09:59:57;;;;;;;19.05;3.80;;;;;;;;;;5003677;28;20725;-76
2021/01/29 10:02:26;;;;;;;22.52;5.72;;;;;;;;;;5011809;28;20182;-75
2021/01/29 10:05:02;;;;;;;28.73;4.03;;;;;;;;;;5010584;28;20191;-76
2021/01/29 10:07:29;;;;;;;18.02;2.97;;;;;;;;;;5011097;28;20206;-75
2021/01/29 10:10:19;;;;;;;24.95;4.00;;;;;;;;;;5011431;28;20607;-76
2021/01/29 10:12:52;;;;;;;19.15;3.40;;;;;;;;;;5005973;28;20205;-76
2021/01/29 10:15:21;;;;;;;22.90;4.20;;;;;;;;;;5011631;28;20191;-77
2021/01/29 10:17:56;;;;;;;16.83;4.57;;;;;;;;;;5011297;28;20210;-76
2021/01/29 10:20:24;;;;;;;13.75;4.15;;;;;;;;;;5010785;28;20186;-75
2021/01/29 10:22:54;;;;;;;12.40;3.58;;;;;;;;;;5011239;28;20206;-74
2021/01/29 10:25:23;;;;;;;19.77;5.15;;;;;;;;;;5011596;28;20179;-74
2021/01/29 10:27:51;;;;;;;11.38;3.50;;;;;;;;;;5008954;28;20207;-75
2021/01/29 10:30:17;;;;;;;12.88;3.58;;;;;;;;;;5011570;28;20272;-75
2021/01/29 10:32:53;;;;;;;16.50;3.57;;;;;;;;;;5011137;28;20214;-76
2021/01/29 10:35:45;;;;;;;22.08;3.70;;;;;;;;;;5012386;28;20483;-75
2021/01/29 10:38:16;;;;;;;15.32;3.03;;;;;;;;;;5020875;28;20233;-75
2021/01/29 10:40:47;;;;;;;19.42;3.63;;;;;;;;;;5031270;28;20178;-74
2021/01/29 10:43:28;;;;;;;19.60;3.97;;;;;;;;;;5030488;28;20236;-77
2021/01/29 10:46:12;;;;;;;19.83;3.75;;;;;;;;;;5029341;28;20186;-74
2021/01/29 10:48:41;;;;;;;17.92;4.00;;;;;;;;;;5032475;28;20198;-77
2021/01/29 10:51:22;;;;;;;20.30;4.10;;;;;;;;;;5034241;28;20182;-74
2021/01/29 10:53:55;;;;;;;23.35;3.50;;;;;;;;;;5034537;28;20182;-74
2021/01/29 10:56:23;;;;;;;17.55;4.38;;;;;;;;;;5033632;28;20533;-75
2021/01/29 10:59:09;;;;;;;14.07;3.67;;;;;;;;;;5033168;28;20252;-75
2021/01/29 11:01:36;;;;;;;12.93;2.75;;;;;;;;;;5034571;28;20186;-76
2021/01/29 11:04:06;;;;;;;18.25;4.03;;;;;;;;;;5033318;28;20178;-75
2021/01/29 11:06:41;;;;;;;19.55;3.90;;;;;;;;;;5034508;28;20206;-75
2021/01/29 11:09:08;;;;;;;20.02;3.95;;;;;;;;;;5033980;28;20204;-77
2021/01/29 11:11:38;;;;;;;25.15;4.05;;;;;;;;;;5033669;28;20186;-75
2021/01/29 11:14:25;;;;;;;19.55;3.85;;;;;;;;;;5033990;28;20182;-74
2021/01/29 11:17:06;;;;;;;14.25;3.72;;;;;;;;;;5033871;28;20251;-74
2021/01/29 11:19:35;;;;;;;15.85;4.13;;;;;;;;;;5033720;28;20273;-74
2021/01/29 11:22:01;;;;;;;19.55;4.82;;;;;;;;;;5033873;28;20174;-76
2021/01/29 11:24:39;;;;;;;12.40;3.13;;;;;;;;;;5034185;28;20561;-75
2021/01/29 11:27:14;;;;;;;13.27;3.28;;;;;;;;;;5032736;28;20421;-76
2021/01/29 11:29:43;;;;;;;8.27;2.97;;;;;;;;;;5033149;28;20178;-74
2021/01/29 11:32:22;;;;;;;10.93;2.40;;;;;;;;;;5033670;28;20583;-73
2021/01/29 11:34:53;;;;;;;8.20;2.65;;;;;;;;;;5033350;28;20185;-74
2021/01/29 11:37:25;;;;;;;13.70;3.08;;;;;;;;;;5028093;28;20206;-73
2021/01/29 11:39:51;;;;;;;18.40;4.25;;;;;;;;;;5030404;28;20196;-74
2021/01/29 11:42:32;;;;;;;8.47;2.47;;;;;;;;;;5031267;28;20185;-74
2021/01/29 11:45:06;;;;;;;9.32;3.53;;;;;;;;;;5033312;28;20835;-73
2021/01/29 11:47:51;;;;;;;10.77;3.20;;;;;;;;;;5033636;28;20230;-74
2021/01/29 11:50:20;;;;;;;13.13;3.38;;;;;;;;;;5033190;28;20194;-73
2021/01/29 11:52:49;;;;;;;12.35;3.83;;;;;;;;;;5033706;28;20293;-74
2021/01/29 11:55:19;;;;;;;12.00;3.00;;;;;;;;;;5032521;28;20186;-75
2021/01/29 11:57:57;;;;;;;15.07;3.67;;;;;;;;;;5032386;28;20253;-74
2021/01/29 12:00:44;;;;;;;11.90;2.35;;;;;;;;;;5032113;28;20190;-74
2021/01/29 12:03:21;;;;;;;9.57;2.70;;;;;;;;;;5025001;28;20197;-74
2021/01/29 12:05:59;;;;;;;15.52;2.53;;;;;;;;;;5033026;28;20261;-75
2021/01/29 12:08:42;;;;;;;9.68;3.22;;;;;;;;;;5032671;28;20709;-75
2021/01/29 12:11:13;;;;;;;8.75;2.63;;;;;;;;;;5032467;28;20209;-76
2021/01/29 12:13:50;;;;;;;12.52;2.58;;;;;;;;;;5033410;28;20592;-76
2021/01/29 12:16:21;;;;;;;16.98;2.95;;;;;;;;;;5032804;28;20182;-75
2021/01/29 12:18:49;;;;;;;13.45;3.28;;;;;;;;;;5031827;28;20213;-75
2021/01/29 12:21:25;;;;;;;5.88;1.73;;;;;;;;;;5032833;28;20576;-76
2021/01/29 12:24:09;;;;;;;11.23;2.50;;;;;;;;;;5032758;28;20182;-76
2021/01/29 12:26:38;;;;;;;8.90;2.03;;;;;;;;;;5012054;28;20181;-75
2021/01/29 12:29:04;;;;;;;15.07;2.60;;;;;;;;;;5018081;28;20331;-75
2021/01/29 12:31:36;;;;;;;7.53;2.50;;;;;;;;;;5032552;28;20175;-75
2021/01/29 12:34:02;;;;;;;16.48;2.78;;;;;;;;;;5033397;28;20493;-75
2021/01/29 12:36:28;;;;;;;6.80;1.40;;;;;;;;;;5034003;28;20212;-74
2021/01/29 12:39:06;;;;;;;6.95;1.58;;;;;;;;;;5033879;28;20432;-74
2021/01/29 12:41:43;;;;;;;5.53;1.50;;;;;;;;;;5034289;28;20192;-74
2021/01/29 12:44:22;;;;;;;9.20;2.17;;;;;;;;;;5034311;28;20172;-75
2021/01/29 12:46:51;;;;;;;7.07;2.20;;;;;;;;;;5033705;28;20170;-75
2021/01/29 12:49:19;;;;;;;6.03;1.38;;;;;;;;;;5033879;28;20232;-74
2021/01/29 12:51:55;;;;;;;9.02;2.10;;;;;;;;;;5034048;28;20661;-75
2021/01/29 12:54:44;;;;;;;7.30;1.90;;;;;;;;;;5033930;28;20188;-75
2021/01/29 12:57:15;;;;;;;5.35;1.48;;;;;;;;;;5028014;28;20237;-76
2021/01/29 12:59:46;;;;;;;4.57;1.35;;;;;;;;;;5033756;28;20193;-75
2021/01/29 13:02:18;;;;;;;4.72;1.65;;;;;;;;;;5033779;28;20170;-76
2021/01/29 13:04:48;;;;;;;7.43;1.95;;;;;;;;;;5032393;28;20178;-76
2021/01/29 13:07:19;;;;;;;4.55;1.75;;;;;;;;;;5033238;28;20332;-76
2021/01/29 13:09:51;;;;;;;11.02;2.42;;;;;;;;;;5033398;28;20627;-75
2021/01/29 13:12:23;;;;;;;7.43;2.60;;;;;;;;;;5033655;28;20657;-76
2021/01/29 13:15:00;;;;;;;8.93;1.88;;;;;;;;;;5033530;28;20701;-76
2021/01/29 13:17:28;;;;;;;13.15;2.97;;;;;;;;;;5033022;28;20263;-76
2021/01/29 13:20:24;;;;;;;14.55;4.13;;;;;;;;;;5033485;28;20253;-76
2021/01/29 13:22:55;;;;;;;10.35;1.75;;;;;;;;;;5024586;28;20190;-75
2021/01/29 13:25:30;;;;;;;12.30;2.85;;;;;;;;;;5033371;28;20176;-76
2021/01/29 13:28:00;;;;;;;11.50;2.88;;;;;;;;;;5032896;28;20197;-76
2021/01/29 13:30:29;;;;;;;13.50;3.20;;;;;;;;;;5033418;28;20260;-76
2021/01/29 13:32:56;;;;;;;7.65;2.30;;;;;;;;;;5033425;28;20166;-75
2021/01/29 13:35:36;;;;;;;11.40;2.47;;;;;;;;;;5033392;28;20182;-76
2021/01/29 13:38:06;;;;;;;14.65;3.08;;;;;;;;;;5032830;28;20763;-77
2021/01/29 13:40:33;;;;;;;8.63;2.88;;;;;;;;;;5033241;28;20189;-75
2021/01/29 13:43:08;;;;;;;14.32;2.65;;;;;;;;;;5033357;28;20236;-74
2021/01/29 13:45:35;;;;;;;7.20;2.58;;;;;;;;;;5031937;28;20716;-76
2021/01/29 13:48:21;;;;;;;17.65;3.30;;;;;;;;;;5032683;28;20206;-76
2021/01/29 13:50:51;;;;;;;14.50;2.95;;;;;;;;;;5032970;28;20193;-76
2021/01/29 13:53:29;;;;;;;17.85;2.60;;;;;;;;;;5033069;28;20174;-79
2021/01/29 13:55:58;;;;;;;15.43;2.40;;;;;;;;;;5032944;28;20806;-76
2021/01/29 13:58:24;;;;;;;14.02;2.70;;;;;;;;;;5032611;28;20216;-77
2021/01/29 14:00:54;;;;;;;6.83;2.43;;;;;;;;;;5031830;28;20654;-77
2021/01/29 14:03:19;;;;;;;11.50;2.17;;;;;;;;;;5031741;28;20536;-77
2021/01/29 14:05:46;;;;;;;10.93;2.20;;;;;;;;;;5032785;28;20626;-78
2021/01/29 14:08:12;;;;;;;6.43;1.77;;;;;;;;;;5031258;28;20429;-79
2021/01/29 14:10:42;;;;;;;8.30;2.20;;;;;;;;;;5032999;28;20260;-77
2021/01/29 14:13:21;;;;;;;13.10;3.08;;;;;;;;;;5033294;28;20191;-78
2021/01/29 14:15:59;;;;;;;9.85;1.83;;;;;;;;;;5026772;28;20210;-75
2021/01/29 14:18:32;;;;;;;12.18;2.13;;;;;;;;;;5023461;28;20213;-77
2021/01/29 14:21:07;;;;;;;7.03;2.08;;;;;;;;;;5016053;28;20612;-76
2021/01/29 14:23:42;;;;;;;7.57;1.85;;;;;;;;;;5015585;28;20639;-74
2021/01/29 14:26:29;;;;;;;3.53;1.40;;;;;;;;;;5016945;28;20553;-76
2021/01/29 14:29:21;;;;;;;3.45;1.30;;;;;;;;;;5016592;28;20236;-76
2021/01/29 14:31:50;;;;;;;5.25;1.48;;;;;;;;;;4994173;28;20198;-76
2021/01/29 14:34:30;;;;;;;5.20;1.40;;;;;;;;;;5016610;28;20179;-76
2021/01/29 14:37:14;;;;;;;1.58;0.80;;;;;;;;;;5016394;28;20564;-76
2021/01/29 14:39:52;;;;;;;4.72;1.15;;;;;;;;;;5016626;28;20170;-76
2021/01/29 14:42:21;;;;;;;7.68;1.90;;;;;;;;;;5016503;28;20181;-75
2021/01/29 14:45:14;;;;;;;4.05;1.13;;;;;;;;;;5016610;28;20582;-75
2021/01/29 14:47:58;;;;;;;4.07;1.30;;;;;;;;;;4993290;28;20271;-76
2021/01/29 14:50:47;;;;;;;8.07;1.90;;;;;;;;;;5016434;28;20183;-77
2021/01/29 14:53:31;;;;;;;4.70;1.30;;;;;;;;;;5016397;28;20190;-76
2021/01/29 14:56:16;;;;;;;3.45;1.42;;;;;;;;;;5016350;28;20264;-76
2021/01/29 14:58:44;;;;;;;8.85;1.85;;;;;;;;;;5015790;28;20213;-76
2021/01/29 15:01:12;;;;;;;6.50;1.40;;;;;;;;;;5016282;28;20512;-76
2021/01/29 15:03:50;;;;;;;5.00;1.92;;;;;;;;;;5016183;28;20309;-76
2021/01/29 15:06:26;;;;;;;6.97;1.42;;;;;;;;;;5016019;28;20253;-77
2021/01/29 15:08:54;;;;;;;6.00;1.40;;;;;;;;;;5015694;28;20201;-77
2021/01/29 15:11:23;;;;;;;4.22;1.73;;;;;;;;;;5015849;28;20183;-77
2021/01/29 15:13:57;;;;;;;4.50;1.30;;;;;;;;;;5016078;28;20565;-78
2021/01/29 15:16:38;;;;;;;7.68;2.10;;;;;;;;;;5016166;28;20240;-76